Time;durP1;ratioP1;P1;durP2;ratioP2;P2;SDS_P1;SDS_P2;PMS_P1;PMS_P2;Temp;Humidity;BMP_temperature;BMP_pressure;BME280_temperature;BME280_humidity;BME280_pressure;Samples;Min_cycle;Max_cycle;Signal;HPM_P1;HPM_P2
2022/11/26 00:01:19;;;;;;;12.73;6.90;;;20.90;62.40;;;;;;4922217;29;20020;-80
2022/11/26 00:03:45;;;;;;;11.85;6.85;;;20.90;62.50;;;;;;4919514;29;20027;-80
2022/11/26 00:06:30;;;;;;;11.23;6.10;;;20.90;62.40;;;;;;4935508;28;20056;-80
2022/11/26 00:08:57;;;;;;;13.80;6.30;;;20.90;62.30;;;;;;4921712;29;20131;-82
2022/11/26 00:11:22;;;;;;;12.63;6.57;;;20.90;62.40;;;;;;4929018;29;20119;-78
2022/11/26 00:13:48;;;;;;;12.18;6.18;;;20.90;62.50;;;;;;4914265;29;20064;-80
2022/11/26 00:16:14;;;;;;;11.30;6.65;;;20.90;62.30;;;;;;4919951;29;20115;-80
2022/11/26 00:18:41;;;;;;;19.25;6.70;;;21.00;62.40;;;;;;4928660;29;20494;-80
2022/11/26 00:21:24;;;;;;;12.23;6.07;;;20.90;62.30;;;;;;4928264;29;20154;-80
2022/11/26 00:23:51;;;;;;;10.77;6.15;;;21.00;62.40;;;;;;4943285;28;20028;-79
2022/11/26 00:26:22;;;;;;;13.18;6.30;;;21.00;62.40;;;;;;4930621;29;20024;-81
2022/11/26 00:28:54;;;;;;;10.90;6.30;;;21.00;62.40;;;;;;4923057;29;20039;-80
2022/11/26 00:31:20;;;;;;;10.82;6.22;;;21.00;62.30;;;;;;4943723;28;20035;-81
2022/11/26 00:33:46;;;;;;;13.55;6.10;;;21.00;62.30;;;;;;4929122;29;20035;-80
2022/11/26 00:36:24;;;;;;;29.92;7.15;;;21.00;62.00;;;;;;4933887;29;20405;-80
2022/11/26 00:39:17;;;;;;;23.95;6.15;;;21.00;62.20;;;;;;4933815;29;20028;-82
2022/11/26 00:41:47;;;;;;;18.92;6.30;;;21.00;62.30;;;;;;4924827;29;20051;-80
2022/11/26 00:44:20;;;;;;;19.13;7.10;;;21.00;62.30;;;;;;4950818;29;20028;-81
2022/11/26 00:46:47;;;;;;;14.60;6.65;;;21.00;62.40;;;;;;4952027;29;20035;-81
2022/11/26 00:49:13;;;;;;;14.07;6.60;;;21.00;62.60;;;;;;4935986;29;20031;-81
2022/11/26 00:51:39;;;;;;;20.75;7.05;;;21.00;62.60;;;;;;4946526;28;20027;-80
2022/11/26 00:54:06;;;;;;;19.83;6.75;;;20.90;62.50;;;;;;4938896;29;20031;-80
2022/11/26 00:56:32;;;;;;;33.88;7.85;;;20.90;62.80;;;;;;4941915;29;20032;-80
2022/11/26 00:58:58;;;;;;;18.45;6.72;;;21.00;62.90;;;;;;4940499;29;20486;-81
2022/11/26 01:01:27;;;;;;;15.88;6.32;;;20.90;62.80;;;;;;4934953;29;20030;-81
2022/11/26 01:03:53;;;;;;;24.13;7.30;;;20.90;63.10;;;;;;4925481;29;20051;-82
2022/11/26 01:06:26;;;;;;;22.42;7.45;;;21.00;63.90;;;;;;4926003;29;20027;-80
2022/11/26 01:08:52;;;;;;;25.98;7.78;;;21.00;65.20;;;;;;4935856;29;20031;-80
2022/11/26 01:11:21;;;;;;;21.02;8.02;;;21.20;66.30;;;;;;4930717;29;20042;-80
2022/11/26 01:13:50;;;;;;;23.27;7.88;;;21.20;67.60;;;;;;4941145;29;20042;-81
2022/11/26 01:16:24;;;;;;;20.40;8.48;;;21.30;68.00;;;;;;4950369;28;20062;-82
2022/11/26 01:18:52;;;;;;;29.05;9.98;;;21.30;68.30;;;;;;4932136;29;20325;-82
2022/11/26 01:21:18;;;;;;;27.73;9.70;;;21.50;69.60;;;;;;4959550;29;20058;-82
2022/11/26 01:23:44;;;;;;;21.05;9.80;;;21.60;69.10;;;;;;4934464;29;20051;-81
2022/11/26 01:26:35;;;;;;;23.90;10.02;;;21.70;68.20;;;;;;4945696;29;20039;-81
2022/11/26 01:29:01;;;;;;;22.20;9.85;;;21.70;67.40;;;;;;4940859;28;20044;-80
2022/11/26 01:31:28;;;;;;;25.23;10.73;;;21.80;66.90;;;;;;4920527;29;20034;-81
2022/11/26 01:33:55;;;;;;;22.83;10.65;;;21.70;66.50;;;;;;4928356;29;20126;-81
2022/11/26 01:36:24;;;;;;;23.42;10.82;;;21.80;66.40;;;;;;4926039;29;20455;-81
2022/11/26 01:38:55;;;;;;;25.33;11.55;;;21.80;66.10;;;;;;4947259;28;20033;-81
2022/11/26 01:41:48;;;;;;;28.45;11.43;;;21.70;66.10;;;;;;4933753;29;20028;-82
2022/11/26 01:44:24;;;;;;;25.58;10.95;;;21.70;66.00;;;;;;4935246;29;20039;-82
2022/11/26 01:46:51;;;;;;;26.75;10.65;;;21.70;66.20;;;;;;4921655;29;21700;-87
2022/11/26 01:49:37;;;;;;;28.90;11.55;;;21.70;65.70;;;;;;4942889;29;20038;-85
2022/11/26 01:52:19;;;;;;;25.05;10.88;;;21.60;65.70;;;;;;4934024;29;20038;-78
2022/11/26 01:54:45;;;;;;;26.95;12.60;;;21.60;66.00;;;;;;4941355;29;20044;-78
2022/11/26 01:57:21;;;;;;;67.43;39.97;;;21.40;65.60;;;;;;4926742;29;20043;-78
2022/11/26 01:59:52;;;;;;;63.90;40.58;;;21.20;58.20;;;;;;4932690;29;20028;-82
2022/11/26 02:02:21;;;;;;;77.63;48.80;;;21.00;61.40;;;;;;4945827;29;20039;-81
2022/11/26 02:05:16;;;;;;;85.82;50.50;;;21.00;60.80;;;;;;4930449;29;20565;-80
2022/11/26 02:07:43;;;;;;;70.63;48.03;;;21.10;60.20;;;;;;4925483;29;20044;-80
2022/11/26 02:10:09;;;;;;;79.40;47.10;;;21.10;60.00;;;;;;4931117;29;20047;-80
2022/11/26 02:12:36;;;;;;;76.22;45.63;;;21.10;60.00;;;;;;4932217;29;20020;-81
2022/11/26 02:15:02;;;;;;;68.78;44.83;;;21.20;60.30;;;;;;4926209;29;20027;-80
2022/11/26 02:17:42;;;;;;;66.68;44.83;;;21.20;60.50;;;;;;4936495;29;20063;-80
2022/11/26 02:20:48;;;;;;;63.10;42.70;;;21.20;60.80;;;;;;4941420;29;20640;-80
2022/11/26 02:23:32;;;;;;;66.78;42.33;;;21.20;61.00;;;;;;4931873;29;20291;-81
2022/11/26 02:26:26;;;;;;;62.17;41.42;;;21.20;61.20;;;;;;4941640;29;20054;-81
2022/11/26 02:29:07;;;;;;;60.53;41.13;;;21.30;61.50;;;;;;4934549;29;20154;-81
2022/11/26 02:31:58;;;;;;;59.42;40.33;;;21.30;61.70;;;;;;4927287;29;20568;-81
2022/11/26 02:34:41;;;;;;;55.58;38.63;;;21.30;61.80;;;;;;4947638;29;20038;-82
2022/11/26 02:37:15;;;;;;;59.72;37.03;;;21.30;61.90;;;;;;4940180;29;20046;-82
2022/11/26 02:39:41;;;;;;;62.42;37.70;;;21.30;62.00;;;;;;4944082;29;20038;-82
2022/11/26 02:42:27;;;;;;;55.45;37.50;;;21.30;62.00;;;;;;4942148;28;20031;-82
2022/11/26 02:44:57;;;;;;;55.25;36.25;;;21.30;62.10;;;;;;4935110;29;20391;-82
2022/11/26 02:47:26;;;;;;;52.88;36.63;;;21.30;62.20;;;;;;4935354;29;20053;-82
2022/11/26 02:49:55;;;;;;;55.17;35.85;;;21.30;62.30;;;;;;4945429;29;20031;-82
2022/11/26 02:52:22;;;;;;;48.10;34.25;;;21.30;62.30;;;;;;4954719;28;20042;-82
2022/11/26 02:54:49;;;;;;;53.15;35.00;;;21.30;62.40;;;;;;4938135;29;20031;-82
2022/11/26 02:57:19;;;;;;;48.75;33.45;;;21.30;62.50;;;;;;4941687;29;20043;-82
2022/11/26 02:59:46;;;;;;;49.05;33.75;;;21.30;62.50;;;;;;4939219;29;20016;-82
2022/11/26 03:02:19;;;;;;;46.92;32.88;;;21.30;62.60;;;;;;4941105;28;20042;-82
2022/11/26 03:04:50;;;;;;;51.47;32.70;;;21.20;62.60;;;;;;4949623;29;20545;-82
2022/11/26 03:07:17;;;;;;;50.42;32.17;;;21.30;62.80;;;;;;4935715;29;20045;-82
2022/11/26 03:09:55;;;;;;;45.85;33.28;;;21.30;63.00;;;;;;4935353;29;20471;-81
2022/11/26 03:12:21;;;;;;;44.78;31.95;;;21.30;63.10;;;;;;4945288;28;20037;-81
2022/11/26 03:14:48;;;;;;;43.50;31.67;;;21.30;63.00;;;;;;4944192;29;20031;-81
2022/11/26 03:17:13;;;;;;;45.90;31.42;;;21.30;63.00;;;;;;4929982;29;20027;-81
2022/11/26 03:19:40;;;;;;;47.53;30.17;;;21.30;63.30;;;;;;4943491;29;20027;-82
2022/11/26 03:22:05;;;;;;;44.70;30.42;;;21.20;63.20;;;;;;4941756;29;20031;-82
2022/11/26 03:24:31;;;;;;;41.05;30.45;;;21.20;63.40;;;;;;4941192;29;20016;-81
2022/11/26 03:26:57;;;;;;;43.05;30.55;;;21.30;63.10;;;;;;4941634;29;20035;-82
2022/11/26 03:29:23;;;;;;;43.28;30.23;;;21.20;63.10;;;;;;4941548;29;20375;-81
2022/11/26 03:31:49;;;;;;;42.03;28.70;;;21.20;63.00;;;;;;4930294;29;20091;-79
2022/11/26 03:34:14;;;;;;;44.70;29.17;;;21.20;63.20;;;;;;4944828;29;20486;-79
2022/11/26 03:36:40;;;;;;;42.13;29.30;;;21.20;63.50;;;;;;4941224;28;20031;-80
2022/11/26 03:39:06;;;;;;;38.63;28.58;;;21.20;64.30;;;;;;4939880;29;20032;-81
2022/11/26 03:41:32;;;;;;;41.95;28.27;;;21.20;64.20;;;;;;4927392;29;20031;-80
2022/11/26 03:43:58;;;;;;;40.78;28.45;;;21.20;63.60;;;;;;4943910;29;20417;-81
2022/11/26 03:46:24;;;;;;;39.30;27.75;;;21.20;63.40;;;;;;4939896;29;20035;-81
2022/11/26 03:48:50;;;;;;;39.30;26.27;;;21.20;63.30;;;;;;4940929;29;20437;-81
2022/11/26 03:51:16;;;;;;;40.08;27.77;;;21.30;63.40;;;;;;4927930;29;20118;-80
2022/11/26 03:53:41;;;;;;;36.05;26.13;;;21.20;63.50;;;;;;4931808;29;20030;-81
2022/11/26 03:56:07;;;;;;;36.03;26.15;;;21.30;63.70;;;;;;4943103;29;20486;-81
2022/11/26 03:58:34;;;;;;;38.20;25.27;;;21.30;63.40;;;;;;4943553;29;20032;-81
2022/11/26 04:01:00;;;;;;;40.45;26.42;;;21.30;63.50;;;;;;4937190;28;20059;-82
2022/11/26 04:03:25;;;;;;;36.85;26.17;;;21.30;63.50;;;;;;4943220;29;20110;-81
2022/11/26 04:05:51;;;;;;;33.85;24.95;;;21.30;63.70;;;;;;4949394;29;20038;-81
2022/11/26 04:08:17;;;;;;;40.20;26.42;;;21.30;63.50;;;;;;4943270;29;20375;-82
2022/11/26 04:10:43;;;;;;;35.33;24.73;;;21.30;63.60;;;;;;4944803;29;20509;-83
2022/11/26 04:13:08;;;;;;;36.45;24.85;;;21.20;63.50;;;;;;4944065;29;20089;-82
2022/11/26 04:15:34;;;;;;;34.08;24.98;;;21.20;63.70;;;;;;4950072;29;20486;-82
2022/11/26 04:18:00;;;;;;;37.13;26.27;;;21.30;63.70;;;;;;4942044;29;20027;-82
2022/11/26 04:20:25;;;;;;;38.78;24.85;;;21.30;63.60;;;;;;4924003;29;20490;-82
2022/11/26 04:22:51;;;;;;;34.42;24.52;;;21.20;63.60;;;;;;4939461;29;20573;-81
2022/11/26 04:25:17;;;;;;;35.47;23.95;;;21.20;63.90;;;;;;4939789;29;20059;-82
2022/11/26 04:27:43;;;;;;;35.20;23.25;;;21.20;63.70;;;;;;4945019;28;20105;-82
2022/11/26 04:30:09;;;;;;;33.67;23.60;;;21.20;63.50;;;;;;4944389;29;20520;-81
2022/11/26 04:32:38;;;;;;;35.15;24.67;;;21.20;63.50;;;;;;4929245;29;20084;-82
2022/11/26 04:35:06;;;;;;;32.70;22.90;;;21.20;63.70;;;;;;4947916;29;20027;-82
2022/11/26 04:37:32;;;;;;;34.78;23.15;;;21.20;63.50;;;;;;4957391;28;20028;-82
2022/11/26 04:39:58;;;;;;;36.03;23.83;;;21.20;63.60;;;;;;4944232;29;20126;-82
2022/11/26 04:42:24;;;;;;;30.77;23.25;;;21.20;63.60;;;;;;4942409;29;20494;-82
2022/11/26 04:44:49;;;;;;;30.83;22.20;;;21.20;63.60;;;;;;4938633;29;20024;-82
2022/11/26 04:47:15;;;;;;;35.10;22.63;;;21.30;63.60;;;;;;4943067;29;20114;-81
2022/11/26 04:49:41;;;;;;;30.75;22.55;;;21.20;63.60;;;;;;4946605;29;20122;-81
2022/11/26 04:52:07;;;;;;;30.67;22.20;;;21.20;63.70;;;;;;4945725;28;20440;-80
2022/11/26 04:54:32;;;;;;;30.65;21.98;;;21.20;63.80;;;;;;4950050;29;20397;-81
2022/11/26 04:56:58;;;;;;;30.13;21.70;;;21.20;63.70;;;;;;4941252;28;20054;-80
2022/11/26 04:59:24;;;;;;;32.70;21.60;;;21.20;63.80;;;;;;4949404;29;20047;-81
2022/11/26 05:01:50;;;;;;;31.13;21.60;;;21.30;64.10;;;;;;4925346;29;20107;-81
2022/11/26 05:04:19;;;;;;;29.45;21.25;;;21.20;63.80;;;;;;4935636;29;20461;-80
2022/11/26 05:06:45;;;;;;;29.23;21.70;;;21.20;63.80;;;;;;4935936;29;20032;-81
2022/11/26 05:09:11;;;;;;;28.88;20.75;;;21.20;63.70;;;;;;4935854;29;20035;-81
2022/11/26 05:11:36;;;;;;;29.85;20.35;;;21.20;63.90;;;;;;4935762;29;20486;-81
2022/11/26 05:14:02;;;;;;;28.63;20.73;;;21.20;63.70;;;;;;4931620;29;20031;-81
2022/11/26 05:16:28;;;;;;;30.15;19.38;;;21.20;64.20;;;;;;4931794;29;20068;-81
2022/11/26 05:18:54;;;;;;;28.23;19.60;;;21.20;63.90;;;;;;4931710;29;20036;-81
2022/11/26 05:21:20;;;;;;;31.98;18.90;;;21.20;63.80;;;;;;4935800;29;20560;-80
2022/11/26 05:23:45;;;;;;;29.75;18.92;;;21.20;63.90;;;;;;4936578;29;20059;-81
2022/11/26 05:26:11;;;;;;;31.65;19.30;;;21.20;64.10;;;;;;4936410;29;20127;-80
2022/11/26 05:28:37;;;;;;;31.08;20.20;;;21.20;64.10;;;;;;4934860;29;20050;-81
2022/11/26 05:31:03;;;;;;;28.48;19.40;;;21.20;64.70;;;;;;4934965;29;20031;-82
2022/11/26 05:33:30;;;;;;;31.20;19.73;;;21.20;63.90;;;;;;4931544;29;20047;-82
2022/11/26 05:35:56;;;;;;;25.85;18.52;;;21.20;63.90;;;;;;4900683;29;20471;-81
2022/11/26 05:38:22;;;;;;;33.47;19.17;;;21.20;64.50;;;;;;4900641;29;20139;-82
2022/11/26 05:40:48;;;;;;;29.23;18.00;;;21.20;64.40;;;;;;4917060;29;20020;-82
2022/11/26 05:43:13;;;;;;;29.55;20.10;;;21.30;64.10;;;;;;4932021;29;20443;-82
2022/11/26 05:45:41;;;;;;;25.30;18.25;;;21.20;64.20;;;;;;4900520;29;20024;-82
2022/11/26 05:48:07;;;;;;;32.78;18.17;;;21.20;64.50;;;;;;4916773;29;20143;-83
2022/11/26 05:50:33;;;;;;;25.42;17.98;;;21.20;64.10;;;;;;4918918;29;20139;-83
2022/11/26 05:52:59;;;;;;;30.33;18.65;;;21.20;64.20;;;;;;4915914;29;20035;-81
2022/11/26 05:55:25;;;;;;;25.08;17.23;;;21.20;64.50;;;;;;4918022;29;20028;-82
2022/11/26 05:57:51;;;;;;;26.60;17.92;;;21.20;64.10;;;;;;4951089;29;20082;-82
2022/11/26 06:00:17;;;;;;;32.33;17.80;;;21.20;64.20;;;;;;4935520;29;20493;-82
2022/11/26 06:02:43;;;;;;;26.10;16.88;;;21.20;64.20;;;;;;4940754;29;20397;-82
2022/11/26 06:05:09;;;;;;;24.73;17.08;;;21.20;64.10;;;;;;4960158;28;20126;-82
2022/11/26 06:07:36;;;;;;;25.00;16.88;;;21.20;64.20;;;;;;4942638;29;20634;-82
2022/11/26 06:10:02;;;;;;;25.05;16.77;;;21.20;64.10;;;;;;4929141;29;20058;-82
2022/11/26 06:12:28;;;;;;;25.90;17.45;;;21.20;64.80;;;;;;4945347;29;20454;-82
2022/11/26 06:14:54;;;;;;;24.63;16.92;;;21.20;64.10;;;;;;4937736;29;20035;-82
2022/11/26 06:17:20;;;;;;;25.55;16.40;;;21.20;64.50;;;;;;4949900;29;20441;-82
2022/11/26 06:19:45;;;;;;;23.98;16.42;;;21.20;64.50;;;;;;4941221;29;20442;-82
2022/11/26 06:22:11;;;;;;;21.98;15.93;;;21.20;64.30;;;;;;4971490;23;20203;-74
2022/11/26 06:24:37;;;;;;;24.30;15.60;;;21.20;64.60;;;;;;4932669;28;20052;-75
2022/11/26 06:27:03;;;;;;;28.50;16.55;;;21.20;65.50;;;;;;4971743;28;20604;-75
2022/11/26 06:29:29;;;;;;;23.75;16.77;;;21.20;64.80;;;;;;4967544;28;20024;-75
2022/11/26 06:31:55;;;;;;;26.45;15.93;;;21.20;64.70;;;;;;4951656;28;20532;-75
2022/11/26 06:34:21;;;;;;;25.27;16.63;;;21.20;64.80;;;;;;4966634;28;20027;-75
2022/11/26 06:36:47;;;;;;;23.95;16.15;;;21.20;64.70;;;;;;4964532;28;20048;-76
2022/11/26 06:39:12;;;;;;;28.10;16.98;;;21.30;65.00;;;;;;4953929;28;20035;-75
2022/11/26 06:41:38;;;;;;;26.95;17.05;;;21.20;65.30;;;;;;4953751;28;20023;-75
2022/11/26 06:44:04;;;;;;;22.70;15.23;;;21.20;65.00;;;;;;4969729;28;20023;-75
2022/11/26 06:46:33;;;;;;;24.33;15.55;;;21.20;65.00;;;;;;4963325;28;20543;-75
2022/11/26 06:49:03;;;;;;;23.40;15.18;;;21.20;65.20;;;;;;4965463;28;20035;-74
2022/11/26 06:51:29;;;;;;;22.55;15.45;;;21.20;65.10;;;;;;4971861;28;20023;-75
2022/11/26 06:53:55;;;;;;;21.10;14.85;;;21.20;65.20;;;;;;4971331;28;20124;-75
2022/11/26 06:56:21;;;;;;;25.08;14.75;;;21.20;65.00;;;;;;4965719;28;20565;-75
2022/11/26 06:58:48;;;;;;;23.88;15.48;;;21.30;65.20;;;;;;4962694;28;20023;-75
2022/11/26 07:01:19;;;;;;;24.17;15.45;;;21.20;65.00;;;;;;4950569;28;20118;-76
2022/11/26 07:03:45;;;;;;;20.92;15.00;;;21.20;65.10;;;;;;4961103;28;20022;-76
2022/11/26 07:06:26;;;;;;;22.40;14.98;;;21.30;65.00;;;;;;4958425;28;20031;-76
2022/11/26 07:08:54;;;;;;;21.88;14.32;;;21.30;65.40;;;;;;4967992;28;20023;-75
2022/11/26 07:11:20;;;;;;;24.55;15.75;;;21.20;65.10;;;;;;4961533;28;20058;-75
2022/11/26 07:13:46;;;;;;;20.17;14.27;;;21.30;65.00;;;;;;4967840;28;20034;-75
2022/11/26 07:16:13;;;;;;;23.67;14.60;;;21.30;65.20;;;;;;4962899;28;20408;-76
2022/11/26 07:18:39;;;;;;;23.40;14.20;;;21.30;65.00;;;;;;4961655;28;20026;-76
2022/11/26 07:21:10;;;;;;;22.98;14.30;;;21.30;65.00;;;;;;4967538;28;20243;-76
2022/11/26 07:23:36;;;;;;;20.05;14.60;;;21.30;65.00;;;;;;4964564;28;20023;-76
2022/11/26 07:26:03;;;;;;;21.88;14.23;;;21.30;65.00;;;;;;4965959;28;20035;-76
2022/11/26 07:28:30;;;;;;;24.30;15.05;;;21.30;65.20;;;;;;4956811;28;20027;-77
2022/11/26 07:31:07;;;;;;;21.13;14.00;;;21.30;65.00;;;;;;4942817;28;20389;-77
2022/11/26 07:33:33;;;;;;;21.33;13.70;;;21.30;65.10;;;;;;4967665;28;20380;-77
2022/11/26 07:36:00;;;;;;;22.02;14.27;;;21.30;65.00;;;;;;4959355;28;20027;-77
2022/11/26 07:38:27;;;;;;;20.60;13.77;;;21.30;65.10;;;;;;4950892;28;20558;-77
2022/11/26 07:40:53;;;;;;;21.98;14.45;;;21.30;65.20;;;;;;4968696;28;20440;-77
2022/11/26 07:43:18;;;;;;;21.33;13.85;;;21.30;65.10;;;;;;4948970;29;20032;-76
2022/11/26 07:45:45;;;;;;;20.45;12.80;;;21.30;65.10;;;;;;4933284;29;20098;-76
2022/11/26 07:48:11;;;;;;;21.25;13.35;;;21.30;65.00;;;;;;4960953;28;20555;-76
2022/11/26 07:50:36;;;;;;;20.73;14.20;;;21.30;65.00;;;;;;4964165;28;20022;-76
2022/11/26 07:53:02;;;;;;;19.38;13.20;;;21.30;65.10;;;;;;4964337;28;20047;-76
2022/11/26 07:55:28;;;;;;;19.45;12.82;;;21.30;65.10;;;;;;4963512;28;20448;-76
2022/11/26 07:57:54;;;;;;;20.90;13.00;;;21.30;65.10;;;;;;4955677;28;20035;-76
2022/11/26 08:00:20;;;;;;;20.67;13.30;;;21.30;65.10;;;;;;4966901;28;20496;-76
2022/11/26 08:02:46;;;;;;;18.77;12.75;;;21.30;65.10;;;;;;4964231;28;20026;-76
2022/11/26 08:05:11;;;;;;;21.60;13.63;;;21.30;65.30;;;;;;4958170;28;20031;-77
2022/11/26 08:07:37;;;;;;;21.55;12.95;;;21.30;65.10;;;;;;4957062;28;20037;-77
2022/11/26 08:10:04;;;;;;;25.27;13.48;;;21.30;65.10;;;;;;4964640;28;20118;-77
2022/11/26 08:12:30;;;;;;;22.02;13.52;;;21.30;65.10;;;;;;4961482;28;20045;-77
2022/11/26 08:14:56;;;;;;;18.52;12.75;;;21.30;65.10;;;;;;4959067;28;20034;-77
2022/11/26 08:17:21;;;;;;;19.77;13.00;;;21.30;65.10;;;;;;4951000;28;20030;-77
2022/11/26 08:19:47;;;;;;;18.25;12.20;;;21.30;65.50;;;;;;4955061;28;20020;-78
2022/11/26 08:22:13;;;;;;;20.50;12.00;;;21.30;65.20;;;;;;4961316;28;20030;-78
2022/11/26 08:24:38;;;;;;;19.40;12.50;;;21.30;66.50;;;;;;4935971;29;20027;-77
2022/11/26 08:27:04;;;;;;;20.38;12.48;;;21.30;65.10;;;;;;4963302;28;20057;-78
2022/11/26 08:29:30;;;;;;;20.00;12.55;;;21.30;65.20;;;;;;4981054;28;20031;-76
2022/11/26 08:31:56;;;;;;;20.13;13.00;;;21.30;65.00;;;;;;4968640;28;20472;-76
2022/11/26 08:34:22;;;;;;;17.83;11.75;;;21.30;64.80;;;;;;4950726;28;20026;-76
2022/11/26 08:36:47;;;;;;;18.13;11.98;;;21.30;64.80;;;;;;4975780;28;20034;-77
2022/11/26 08:39:17;;;;;;;16.83;11.18;;;21.30;64.80;;;;;;4974890;28;20045;-77
2022/11/26 08:41:44;;;;;;;;;;;21.30;64.80;;;;;;4967074;28;20034;-76
2022/11/26 08:44:09;;;;;;;20.67;11.23;;;21.30;64.90;;;;;;4986261;28;19920;-76
2022/11/26 08:46:37;;;;;;;18.83;11.65;;;21.30;65.10;;;;;;4967569;28;20027;-76
2022/11/26 08:49:03;;;;;;;18.02;11.50;;;21.30;65.70;;;;;;4986329;28;20043;-77
2022/11/26 08:51:30;;;;;;;22.17;12.57;;;21.30;65.10;;;;;;4960357;28;20033;-77
2022/11/26 08:53:56;;;;;;;22.20;12.38;;;21.30;65.10;;;;;;4965326;28;20125;-77
2022/11/26 08:56:24;;;;;;;19.90;11.80;;;21.30;65.10;;;;;;4952577;28;20062;-77
2022/11/26 08:58:50;;;;;;;19.15;11.52;;;21.30;65.20;;;;;;4969617;28;20123;-77
2022/11/26 09:01:19;;;;;;;21.92;12.57;;;21.30;65.50;;;;;;4963191;28;20031;-77
2022/11/26 09:03:52;;;;;;;20.38;11.15;;;21.30;65.40;;;;;;4964150;28;20389;-77
2022/11/26 09:06:19;;;;;;;23.90;11.85;;;21.30;65.20;;;;;;4973626;28;20023;-77
2022/11/26 09:11:31;;;;;;;19.48;11.85;;;21.30;65.20;;;;;;4967627;28;20035;-77
2022/11/26 09:13:58;;;;;;;19.88;12.10;;;21.30;65.30;;;;;;4955118;28;20035;-78
2022/11/26 09:16:24;;;;;;;18.48;11.05;;;21.30;65.40;;;;;;4972166;28;20027;-77
2022/11/26 09:18:51;;;;;;;18.65;11.30;;;21.30;65.40;;;;;;4965922;28;20444;-77
2022/11/26 09:21:17;;;;;;;17.50;11.40;;;21.30;65.50;;;;;;4966759;28;20468;-78
2022/11/26 09:23:43;;;;;;;18.20;11.45;;;21.30;65.40;;;;;;4965593;28;20395;-78
2022/11/26 09:26:09;;;;;;;18.15;10.95;;;21.30;65.40;;;;;;4962512;28;20121;-78
2022/11/26 09:28:34;;;;;;;18.33;11.32;;;21.30;65.50;;;;;;4968688;28;20033;-77
2022/11/26 09:31:01;;;;;;;18.58;11.35;;;21.30;65.30;;;;;;4964288;28;20057;-77
2022/11/26 09:33:27;;;;;;;21.25;11.25;;;21.30;65.40;;;;;;4966858;28;20042;-78
2022/11/26 09:35:53;;;;;;;19.98;11.20;;;21.30;65.30;;;;;;4970751;28;20105;-77
2022/11/26 09:38:19;;;;;;;17.00;10.98;;;21.30;65.40;;;;;;4965598;28;20026;-76
2022/11/26 09:40:51;;;;;;;17.13;10.77;;;21.30;65.30;;;;;;4967569;28;20031;-76
2022/11/26 09:43:39;;;;;;;17.88;11.00;;;21.30;65.20;;;;;;4969686;28;20030;-77
2022/11/26 09:46:07;;;;;;;22.70;11.35;;;21.30;65.70;;;;;;4969519;28;20113;-77
2022/11/26 09:48:33;;;;;;;17.52;10.65;;;21.30;66.20;;;;;;4962227;28;20059;-76
2022/11/26 09:51:08;;;;;;;16.67;10.90;;;21.30;65.40;;;;;;4968479;28;20086;-76
2022/11/26 09:53:39;;;;;;;18.38;10.80;;;21.30;65.20;;;;;;4963135;28;20023;-76
2022/11/26 09:56:09;;;;;;;18.42;11.15;;;21.30;65.30;;;;;;4970318;28;20504;-76
2022/11/26 09:59:00;;;;;;;19.70;11.05;;;21.30;65.40;;;;;;4965551;28;20054;-76
2022/11/26 10:01:27;;;;;;;17.98;11.10;;;21.40;65.50;;;;;;4962208;28;20043;-76
2022/11/26 10:03:53;;;;;;;18.10;11.05;;;21.30;65.40;;;;;;4961525;28;20034;-77
2022/11/26 10:07:02;;;;;;;15.02;10.15;;;21.30;65.90;;;;;;4967126;28;20069;-76
2022/11/26 10:09:52;;;;;;;20.95;10.27;;;21.30;65.50;;;;;;4952263;28;20509;-75
2022/11/26 10:12:40;;;;;;;22.92;10.95;;;21.30;65.40;;;;;;4968634;28;20092;-82
2022/11/26 10:15:51;;;;;;;21.27;9.98;;;21.30;65.20;;;;;;4969763;28;20038;-81
2022/11/26 10:18:24;;;;;;;26.70;6.10;;;21.30;64.20;;;;;;4953244;28;20041;-83
2022/11/26 10:21:12;;;;;;;19.50;4.65;;;21.00;61.30;;;;;;4948070;28;20484;-79
2022/11/26 10:23:44;;;;;;;22.95;5.57;;;20.90;58.10;;;;;;4966176;28;20031;-80
2022/11/26 10:26:16;;;;;;;14.90;4.53;;;20.70;57.50;;;;;;4955088;28;20086;-79
2022/11/26 10:28:48;;;;;;;16.05;4.68;;;20.70;56.20;;;;;;4957549;28;20040;-79
2022/11/26 10:31:26;;;;;;;14.75;4.70;;;20.60;56.20;;;;;;4942896;29;20450;-76
2022/11/26 10:34:00;;;;;;;20.75;5.72;;;20.70;58.50;;;;;;4935524;29;20051;-75
2022/11/26 10:36:38;;;;;;;20.63;5.72;;;20.80;59.90;;;;;;4923189;28;20038;-75
2022/11/26 10:39:06;;;;;;;18.85;5.28;;;20.90;58.60;;;;;;4933146;28;20445;-76
2022/11/26 10:41:36;;;;;;;17.05;5.45;;;21.00;58.10;;;;;;4950653;29;20404;-76
2022/11/26 10:44:28;;;;;;;21.08;5.97;;;21.10;57.60;;;;;;4951822;29;20050;-75
2022/11/26 10:46:55;;;;;;;29.30;6.53;;;21.10;57.20;;;;;;4947544;28;20062;-76
2022/11/26 10:49:23;;;;;;;21.90;6.53;;;21.20;57.20;;;;;;4953354;28;20176;-76
2022/11/26 10:51:53;;;;;;;18.35;5.53;;;21.30;57.20;;;;;;4935893;29;20039;-75
2022/11/26 10:54:36;;;;;;;22.48;5.50;;;21.30;57.70;;;;;;4954145;28;20031;-76
2022/11/26 10:57:08;;;;;;;24.80;6.03;;;21.40;57.90;;;;;;4954106;28;20035;-75
2022/11/26 10:59:54;;;;;;;20.88;6.55;;;21.40;58.30;;;;;;4954369;28;20031;-76
2022/11/26 11:02:29;;;;;;;17.30;5.70;;;21.40;58.40;;;;;;4954031;28;20031;-76
2022/11/26 11:05:01;;;;;;;25.08;5.32;;;21.40;58.50;;;;;;4951032;28;20027;-78
2022/11/26 11:07:42;;;;;;;18.50;5.35;;;21.40;59.50;;;;;;4952154;28;20034;-74
2022/11/26 11:10:08;;;;;;;17.02;5.65;;;21.40;59.40;;;;;;4962395;28;20423;-74
2022/11/26 11:12:39;;;;;;;28.35;6.28;;;21.40;59.70;;;;;;4957400;28;20122;-76
2022/11/26 11:15:17;;;;;;;17.65;5.80;;;21.40;61.20;;;;;;4949137;28;20035;-74
2022/11/26 11:17:44;;;;;;;17.08;5.32;;;21.40;60.70;;;;;;4951424;28;20028;-75
2022/11/26 11:20:16;;;;;;;16.33;5.55;;;21.40;61.00;;;;;;4950561;28;20412;-76
2022/11/26 11:22:43;;;;;;;22.90;5.07;;;21.40;61.30;;;;;;4951917;28;20488;-78
2022/11/26 11:25:30;;;;;;;21.48;5.50;;;21.40;61.50;;;;;;4965971;28;20035;-74
2022/11/26 11:28:06;;;;;;;16.90;5.10;;;21.40;61.70;;;;;;4953098;28;20397;-75
2022/11/26 11:30:36;;;;;;;17.30;5.57;;;21.40;62.00;;;;;;4958696;28;20434;-75
2022/11/26 11:33:16;;;;;;;18.15;5.30;;;21.40;62.10;;;;;;4958809;28;20117;-77
2022/11/26 11:35:41;;;;;;;18.90;5.68;;;21.40;62.20;;;;;;4965409;28;20041;-77
2022/11/26 11:38:22;;;;;;;17.45;5.63;;;21.40;62.60;;;;;;4967816;28;20030;-76
2022/11/26 11:40:48;;;;;;;21.25;4.97;;;21.40;63.00;;;;;;4959359;28;20035;-75
2022/11/26 11:43:16;;;;;;;16.23;4.35;;;21.40;63.30;;;;;;4943048;28;20029;-75
2022/11/26 11:46:11;;;;;;;17.17;4.72;;;21.40;63.50;;;;;;4947930;28;20031;-75
2022/11/26 11:48:37;;;;;;;20.55;4.53;;;21.40;63.40;;;;;;4952195;28;20102;-77
2022/11/26 11:51:21;;;;;;;22.73;5.40;;;21.40;63.40;;;;;;4952746;28;20426;-76
2022/11/26 11:54:00;;;;;;;16.52;4.93;;;21.40;64.60;;;;;;4960031;28;20038;-79
2022/11/26 11:56:57;;;;;;;29.40;15.77;;;21.30;63.90;;;;;;4959356;28;20039;-75
2022/11/26 12:03:15;;;;;;;40.10;20.02;;;21.20;61.50;;;;;;4951612;28;20505;-76
2022/11/26 12:06:03;;;;;;;35.45;19.13;;;21.20;62.50;;;;;;4947631;28;20031;-74
2022/11/26 12:09:01;;;;;;;28.80;17.05;;;21.30;61.90;;;;;;4951549;28;20444;-76
2022/11/26 12:11:31;;;;;;;35.17;17.88;;;21.30;62.40;;;;;;4952833;28;20028;-75
2022/11/26 12:14:02;;;;;;;34.40;16.30;;;21.40;63.80;;;;;;4952607;28;20040;-75
2022/11/26 12:16:36;;;;;;;34.88;15.48;;;21.40;62.60;;;;;;4964471;28;20035;-77
2022/11/26 12:19:27;;;;;;;41.10;15.30;;;21.40;62.80;;;;;;4960287;28;20167;-75
2022/11/26 12:22:17;;;;;;;31.92;15.80;;;21.30;62.00;;;;;;4936106;29;20038;-75
2022/11/26 12:24:57;;;;;;;31.60;16.17;;;21.30;62.60;;;;;;4947690;29;20031;-75
2022/11/26 12:27:42;;;;;;;31.73;14.00;;;21.30;62.50;;;;;;4952997;28;20129;-76
2022/11/26 12:30:25;;;;;;;25.08;13.55;;;21.30;62.60;;;;;;4934778;29;20400;-77
2022/11/26 12:33:01;;;;;;;31.45;13.05;;;21.30;62.60;;;;;;4963608;28;20044;-75
2022/11/26 12:35:41;;;;;;;31.38;14.05;;;21.30;62.30;;;;;;4949701;28;20031;-77
2022/11/26 12:38:13;;;;;;;;;;;21.30;62.80;;;;;;4967632;28;20031;-76
2022/11/26 12:40:52;;;;;;;25.23;13.38;;;21.30;63.00;;;;;;4952733;28;19910;-77
2022/11/26 12:43:38;;;;;;;24.55;13.30;;;21.30;63.00;;;;;;4953066;28;20031;-77
2022/11/26 12:46:17;;;;;;;28.50;13.00;;;21.30;63.20;;;;;;4951910;29;20027;-78
2022/11/26 12:48:49;;;;;;;32.17;12.82;;;21.30;63.60;;;;;;4951763;29;20035;-77
2022/11/26 12:51:39;;;;;;;26.38;12.60;;;21.30;63.80;;;;;;4952606;28;20039;-78
2022/11/26 12:54:20;;;;;;;24.30;12.75;;;21.30;63.70;;;;;;4935304;29;20493;-78